sensor_id;sensor_type;location;lat;lon;timestamp;pressure;altitude;pressure_sealevel;temperature
71630;BMP280;59479;51.902;8.212;2022-11-23T00:02:07;99227.31;;;9.08
71630;BMP280;59479;51.902;8.212;2022-11-23T00:04:32;99222.94;;;9.19
71630;BMP280;59479;51.902;8.212;2022-11-23T00:06:57;99223.16;;;9.07
71630;BMP280;59479;51.902;8.212;2022-11-23T00:09:23;99223.91;;;9.12
71630;BMP280;59479;51.902;8.212;2022-11-23T00:11:48;99225.53;;;9.16
71630;BMP280;59479;51.902;8.212;2022-11-23T00:14:13;99221.31;;;9.18
71630;BMP280;59479;51.902;8.212;2022-11-23T00:16:38;99229.06;;;9.04
71630;BMP280;59479;51.902;8.212;2022-11-23T00:19:04;99243.28;;;9.02
71630;BMP280;59479;51.902;8.212;2022-11-23T00:21:30;99234.63;;;9.20
71630;BMP280;59479;51.902;8.212;2022-11-23T00:23:56;99235.59;;;9.13
71630;BMP280;59479;51.902;8.212;2022-11-23T00:26:22;99238.16;;;9.10
71630;BMP280;59479;51.902;8.212;2022-11-23T00:28:47;99229.69;;;9.15
71630;BMP280;59479;51.902;8.212;2022-11-23T00:31:15;99231.31;;;9.19
71630;BMP280;59479;51.902;8.212;2022-11-23T00:33:41;99226.44;;;9.09
71630;BMP280;59479;51.902;8.212;2022-11-23T00:36:13;99232.19;;;9.15
71630;BMP280;59479;51.902;8.212;2022-11-23T00:38:39;99232.19;;;9.15
71630;BMP280;59479;51.902;8.212;2022-11-23T00:41:09;99233.81;;;9.19
71630;BMP280;59479;51.902;8.212;2022-11-23T00:43:35;99226.19;;;9.25
71630;BMP280;59479;51.902;8.212;2022-11-23T00:48:27;99227.94;;;9.20
71630;BMP280;59479;51.902;8.212;2022-11-23T00:50:52;99234.44;;;9.31
71630;BMP280;59479;51.902;8.212;2022-11-23T00:53:17;99236.16;;;9.29
71630;BMP280;59479;51.902;8.212;2022-11-23T00:55:53;99235.22;;;9.33
71630;BMP280;59479;51.902;8.212;2022-11-23T00:58:19;99232.06;;;9.25
71630;BMP280;59479;51.902;8.212;2022-11-23T01:00:44;99233.75;;;9.22
71630;BMP280;59479;51.902;8.212;2022-11-23T01:03:10;99234.44;;;9.31
71630;BMP280;59479;51.902;8.212;2022-11-23T01:05:36;99226.91;;;9.31
71630;BMP280;59479;51.902;8.212;2022-11-23T01:08:02;99231.88;;;9.34
71630;BMP280;59479;51.902;8.212;2022-11-23T01:10:31;99229.38;;;9.34
71630;BMP280;59479;51.902;8.212;2022-11-23T01:12:57;99231.91;;;9.33
71630;BMP280;59479;51.902;8.212;2022-11-23T01:15:22;99233.63;;;9.31
71630;BMP280;59479;51.902;8.212;2022-11-23T01:17:48;99231.97;;;9.28
71630;BMP280;59479;51.902;8.212;2022-11-23T01:20:13;99228.66;;;9.26
71630;BMP280;59479;51.902;8.212;2022-11-23T01:22:39;99239.44;;;9.33
71630;BMP280;59479;51.902;8.212;2022-11-23T01:25:04;99246.81;;;9.40
71630;BMP280;59479;51.902;8.212;2022-11-23T01:27:30;99245.94;;;9.43
71630;BMP280;59479;51.902;8.212;2022-11-23T01:29:55;99240.88;;;9.46
71630;BMP280;59479;51.902;8.212;2022-11-23T01:32:20;99247.66;;;9.41
71630;BMP280;59479;51.902;8.212;2022-11-23T01:34:46;99245.97;;;9.41
71630;BMP280;59479;51.902;8.212;2022-11-23T01:37:11;99247.72;;;9.36
71630;BMP280;59479;51.902;8.212;2022-11-23T01:39:36;99252.72;;;9.36
71630;BMP280;59479;51.902;8.212;2022-11-23T01:42:02;99245.97;;;9.41
71630;BMP280;59479;51.902;8.212;2022-11-23T01:44:33;99249.22;;;9.46
71630;BMP280;59479;51.902;8.212;2022-11-23T01:47:00;99258.31;;;9.50
71630;BMP280;59479;51.902;8.212;2022-11-23T01:49:29;99250.00;;;9.48
71630;BMP280;59479;51.902;8.212;2022-11-23T01:51:58;99251.63;;;9.52
71630;BMP280;59479;51.902;8.212;2022-11-23T01:54:30;99251.72;;;9.46
71630;BMP280;59479;51.902;8.212;2022-11-23T01:56:59;99256.66;;;9.52
71630;BMP280;59479;51.902;8.212;2022-11-23T01:59:26;99252.44;;;9.54
71630;BMP280;59479;51.902;8.212;2022-11-23T02:01:52;99256.75;;;9.46
71630;BMP280;59479;51.902;8.212;2022-11-23T02:04:31;99250.88;;;9.49
71630;BMP280;59479;51.902;8.212;2022-11-23T02:06:59;99260.03;;;9.48
71630;BMP280;59479;51.902;8.212;2022-11-23T02:09:28;99257.53;;;9.48
71630;BMP280;59479;51.902;8.212;2022-11-23T02:11:54;99257.75;;;9.36
71630;BMP280;59479;51.902;8.212;2022-11-23T02:14:20;99258.44;;;9.44
71630;BMP280;59479;51.902;8.212;2022-11-23T02:16:45;99261.00;;;9.41
71630;BMP280;59479;51.902;8.212;2022-11-23T02:19:47;99260.28;;;9.35
71630;BMP280;59479;51.902;8.212;2022-11-23T02:22:23;99263.56;;;9.37
71630;BMP280;59479;51.902;8.212;2022-11-23T02:24:52;99262.59;;;9.45
71630;BMP280;59479;51.902;8.212;2022-11-23T02:27:19;99262.06;;;9.28
71630;BMP280;59479;51.902;8.212;2022-11-23T02:29:46;99263.69;;;9.32
71630;BMP280;59479;51.902;8.212;2022-11-23T02:32:17;99267.69;;;9.42
71630;BMP280;59479;51.902;8.212;2022-11-23T02:34:43;99269.28;;;9.46
71630;BMP280;59479;51.902;8.212;2022-11-23T02:37:09;99259.06;;;9.55
71630;BMP280;59479;51.902;8.212;2022-11-23T02:39:41;99265.91;;;9.49
71630;BMP280;59479;51.902;8.212;2022-11-23T02:42:08;99269.28;;;9.46
71630;BMP280;59479;51.902;8.212;2022-11-23T02:44:59;99278.47;;;9.47
71630;BMP280;59479;51.902;8.212;2022-11-23T02:47:27;99275.13;;;9.47
71630;BMP280;59479;51.902;8.212;2022-11-23T02:49:53;99274.22;;;9.52
71630;BMP280;59479;51.902;8.212;2022-11-23T02:52:18;99275.97;;;9.46
71630;BMP280;59479;51.902;8.212;2022-11-23T02:54:44;99281.00;;;9.46
71630;BMP280;59479;51.902;8.212;2022-11-23T02:57:09;99285.06;;;9.53
71630;BMP280;59479;51.902;8.212;2022-11-23T02:59:35;99281.81;;;9.46
71630;BMP280;59479;51.902;8.212;2022-11-23T03:02:02;99276.72;;;9.52
71630;BMP280;59479;51.902;8.212;2022-11-23T03:04:28;99281.59;;;9.58
71630;BMP280;59479;51.902;8.212;2022-11-23T03:06:57;99284.84;;;9.63
71630;BMP280;59479;51.902;8.212;2022-11-23T03:09:22;99285.88;;;9.52
71630;BMP280;59479;51.902;8.212;2022-11-23T03:11:50;99299.31;;;9.49
71630;BMP280;59479;51.902;8.212;2022-11-23T03:14:15;99296.88;;;9.46
71630;BMP280;59479;51.902;8.212;2022-11-23T03:16:40;99299.19;;;9.55
71630;BMP280;59479;51.902;8.212;2022-11-23T03:19:06;99291.75;;;9.52
71630;BMP280;59479;51.902;8.212;2022-11-23T03:21:31;99304.97;;;9.60
71630;BMP280;59479;51.902;8.212;2022-11-23T03:23:57;99302.59;;;9.53
71630;BMP280;59479;51.902;8.212;2022-11-23T03:26:22;99297.59;;;9.53
71630;BMP280;59479;51.902;8.212;2022-11-23T03:28:48;99304.19;;;9.58
71630;BMP280;59479;51.902;8.212;2022-11-23T03:31:13;99291.63;;;9.58
71630;BMP280;59479;51.902;8.212;2022-11-23T03:33:39;99301.66;;;9.58
71630;BMP280;59479;51.902;8.212;2022-11-23T03:36:04;99292.50;;;9.57
71630;BMP280;59479;51.902;8.212;2022-11-23T03:38:30;99293.97;;;9.67
71630;BMP280;59479;51.902;8.212;2022-11-23T03:40:55;99294.72;;;9.72
71630;BMP280;59479;51.902;8.212;2022-11-23T03:43:21;99296.44;;;9.70
71630;BMP280;59479;51.902;8.212;2022-11-23T03:45:46;99292.44;;;9.60
71630;BMP280;59479;51.902;8.212;2022-11-23T03:48:12;99296.47;;;9.67
71630;BMP280;59479;51.902;8.212;2022-11-23T03:50:38;99293.97;;;9.67
71630;BMP280;59479;51.902;8.212;2022-11-23T03:53:03;99307.47;;;9.60
71630;BMP280;59479;51.902;8.212;2022-11-23T03:55:28;99300.88;;;9.56
71630;BMP280;59479;51.902;8.212;2022-11-23T03:57:54;99299.31;;;9.51
71630;BMP280;59479;51.902;8.212;2022-11-23T04:00:24;99313.44;;;9.53
71630;BMP280;59479;51.902;8.212;2022-11-23T04:02:49;99301.66;;;9.58
71630;BMP280;59479;51.902;8.212;2022-11-23T04:05:15;99293.41;;;9.53
71630;BMP280;59479;51.902;8.212;2022-11-23T04:07:40;99292.47;;;9.59
71630;BMP280;59479;51.902;8.212;2022-11-23T04:10:06;99305.88;;;9.58
71630;BMP280;59479;51.902;8.212;2022-11-23T04:12:31;99302.53;;;9.57
71630;BMP280;59479;51.902;8.212;2022-11-23T04:14:56;99292.63;;;9.50
71630;BMP280;59479;51.902;8.212;2022-11-23T04:17:22;99297.47;;;9.59
71630;BMP280;59479;51.902;8.212;2022-11-23T04:19:47;99295.09;;;9.51
71630;BMP280;59479;51.902;8.212;2022-11-23T04:22:12;99297.69;;;9.47
71630;BMP280;59479;51.902;8.212;2022-11-23T04:24:38;99304.34;;;9.48
71630;BMP280;59479;51.902;8.212;2022-11-23T04:27:03;99296.81;;;9.49
71630;BMP280;59479;51.902;8.212;2022-11-23T04:29:28;99296.81;;;9.49
71630;BMP280;59479;51.902;8.212;2022-11-23T04:31:53;99296.03;;;9.47
71630;BMP280;59479;51.902;8.212;2022-11-23T04:34:19;99301.84;;;9.49
71630;BMP280;59479;51.902;8.212;2022-11-23T04:36:44;99299.19;;;9.57
71630;BMP280;59479;51.902;8.212;2022-11-23T04:39:11;99306.13;;;9.41
71630;BMP280;59479;51.902;8.212;2022-11-23T04:41:36;99304.53;;;9.39
71630;BMP280;59479;51.902;8.212;2022-11-23T04:44:02;99295.16;;;9.48
71630;BMP280;59479;51.902;8.212;2022-11-23T04:46:27;99312.72;;;9.47
71630;BMP280;59479;51.902;8.212;2022-11-23T04:48:52;99308.59;;;9.44
71630;BMP280;59479;51.902;8.212;2022-11-23T04:51:18;99306.84;;;9.49
71630;BMP280;59479;51.902;8.212;2022-11-23T04:53:43;99308.47;;;9.50
71630;BMP280;59479;51.902;8.212;2022-11-23T04:56:08;99312.78;;;9.44
71630;BMP280;59479;51.902;8.212;2022-11-23T04:58:34;99322.09;;;9.37
71630;BMP280;59479;51.902;8.212;2022-11-23T05:01:00;99318.72;;;9.38
71630;BMP280;59479;51.902;8.212;2022-11-23T05:03:26;99325.25;;;9.48
71630;BMP280;59479;51.902;8.212;2022-11-23T05:05:51;99331.91;;;9.49
71630;BMP280;59479;51.902;8.212;2022-11-23T05:08:17;99337.66;;;9.56
71630;BMP280;59479;51.902;8.212;2022-11-23T05:10:42;99328.41;;;9.61
71630;BMP280;59479;51.902;8.212;2022-11-23T05:13:08;99330.00;;;9.63
71630;BMP280;59479;51.902;8.212;2022-11-23T05:15:36;99335.78;;;9.68
71630;BMP280;59479;51.902;8.212;2022-11-23T05:18:03;99330.16;;;9.54
71630;BMP280;59479;51.902;8.212;2022-11-23T05:20:31;99334.25;;;9.60
71630;BMP280;59479;51.902;8.212;2022-11-23T05:22:56;99322.56;;;9.59
71630;BMP280;59479;51.902;8.212;2022-11-23T05:25:22;99326.69;;;9.61
71630;BMP280;59479;51.902;8.212;2022-11-23T05:27:48;99327.63;;;9.56
71630;BMP280;59479;51.902;8.212;2022-11-23T05:30:13;99334.25;;;9.60
71630;BMP280;59479;51.902;8.212;2022-11-23T05:32:39;99339.34;;;9.54
71630;BMP280;59479;51.902;8.212;2022-11-23T05:35:04;99329.28;;;9.55
71630;BMP280;59479;51.902;8.212;2022-11-23T05:37:30;99335.94;;;9.59
71630;BMP280;59479;51.902;8.212;2022-11-23T05:39:55;99331.72;;;9.61
71630;BMP280;59479;51.902;8.212;2022-11-23T05:42:21;99341.72;;;9.64
71630;BMP280;59479;51.902;8.212;2022-11-23T05:44:46;99346.81;;;9.58
71630;BMP280;59479;51.902;8.212;2022-11-23T05:47:11;99346.75;;;9.61
71630;BMP280;59479;51.902;8.212;2022-11-23T05:49:37;99343.44;;;9.61
71630;BMP280;59479;51.902;8.212;2022-11-23T05:52:02;99334.94;;;9.69
71630;BMP280;59479;51.902;8.212;2022-11-23T05:54:28;99344.22;;;9.64
71630;BMP280;59479;51.902;8.212;2022-11-23T05:56:53;99345.03;;;9.64
71630;BMP280;59479;51.902;8.212;2022-11-23T05:59:18;99338.31;;;9.65
71630;BMP280;59479;51.902;8.212;2022-11-23T06:01:44;99346.75;;;9.61
71630;BMP280;59479;51.902;8.212;2022-11-23T06:04:09;99340.09;;;9.60
71630;BMP280;59479;51.902;8.212;2022-11-23T06:06:34;99349.28;;;9.60
71630;BMP280;59479;51.902;8.212;2022-11-23T06:09:00;99339.31;;;9.57
71630;BMP280;59479;51.902;8.212;2022-11-23T06:11:25;99340.03;;;9.63
71630;BMP280;59479;51.902;8.212;2022-11-23T06:13:50;99348.47;;;9.59
71630;BMP280;59479;51.902;8.212;2022-11-23T06:16:15;99350.19;;;9.57
71630;BMP280;59479;51.902;8.212;2022-11-23T06:18:41;99352.66;;;9.59
71630;BMP280;59479;51.902;8.212;2022-11-23T06:21:06;99340.97;;;9.58
71630;BMP280;59479;51.902;8.212;2022-11-23T06:23:31;99356.03;;;9.58
71630;BMP280;59479;51.902;8.212;2022-11-23T06:26:00;99358.34;;;9.68
71630;BMP280;59479;51.902;8.212;2022-11-23T06:28:26;99357.72;;;9.57
71630;BMP280;59479;51.902;8.212;2022-11-23T06:30:53;99354.34;;;9.58
71630;BMP280;59479;51.902;8.212;2022-11-23T06:33:18;99360.25;;;9.56
71630;BMP280;59479;51.902;8.212;2022-11-23T06:35:54;99353.56;;;9.53
71630;BMP280;59479;51.902;8.212;2022-11-23T06:38:20;99353.50;;;9.59
71630;BMP280;59479;51.902;8.212;2022-11-23T06:40:45;99345.94;;;9.61
71630;BMP280;59479;51.902;8.212;2022-11-23T06:43:10;99353.56;;;9.53
71630;BMP280;59479;51.902;8.212;2022-11-23T06:45:36;99357.78;;;9.53
71630;BMP280;59479;51.902;8.212;2022-11-23T06:48:01;99359.47;;;9.52
71630;BMP280;59479;51.902;8.212;2022-11-23T06:50:26;99361.09;;;9.55
71630;BMP280;59479;51.902;8.212;2022-11-23T06:52:56;99362.06;;;9.46
71630;BMP280;59479;51.902;8.212;2022-11-23T06:55:22;99365.34;;;9.50
71630;BMP280;59479;51.902;8.212;2022-11-23T06:57:48;99359.53;;;9.48
71630;BMP280;59479;51.902;8.212;2022-11-23T07:00:13;99366.13;;;9.52
71630;BMP280;59479;51.902;8.212;2022-11-23T07:02:39;99366.88;;;9.58
71630;BMP280;59479;51.902;8.212;2022-11-23T07:05:05;99366.91;;;9.55
71630;BMP280;59479;51.902;8.212;2022-11-23T07:07:30;99373.69;;;9.50
71630;BMP280;59479;51.902;8.212;2022-11-23T07:09:56;99381.19;;;9.52
71630;BMP280;59479;51.902;8.212;2022-11-23T07:12:21;99372.84;;;9.50
71630;BMP280;59479;51.902;8.212;2022-11-23T07:14:46;99373.56;;;9.59
71630;BMP280;59479;51.902;8.212;2022-11-23T07:17:12;99380.28;;;9.57
71630;BMP280;59479;51.902;8.212;2022-11-23T07:19:37;99381.09;;;9.58
71630;BMP280;59479;51.902;8.212;2022-11-23T07:22:03;99380.16;;;9.63
71630;BMP280;59479;51.902;8.212;2022-11-23T07:24:28;99379.38;;;9.61
71630;BMP280;59479;51.902;8.212;2022-11-23T07:26:53;99380.16;;;9.63
71630;BMP280;59479;51.902;8.212;2022-11-23T07:29:18;99392.81;;;9.57
71630;BMP280;59479;51.902;8.212;2022-11-23T07:31:44;99386.19;;;9.53
71630;BMP280;59479;51.902;8.212;2022-11-23T07:34:09;99390.31;;;9.57
71630;BMP280;59479;51.902;8.212;2022-11-23T07:36:35;99392.00;;;9.54
71630;BMP280;59479;51.902;8.212;2022-11-23T07:39:00;99393.69;;;9.53
71630;BMP280;59479;51.902;8.212;2022-11-23T07:41:26;99397.78;;;9.59
71630;BMP280;59479;51.902;8.212;2022-11-23T07:43:52;99401.09;;;9.62
71630;BMP280;59479;51.902;8.212;2022-11-23T07:46:17;99403.50;;;9.68
71630;BMP280;59479;51.902;8.212;2022-11-23T07:48:42;99404.41;;;9.64
71630;BMP280;59479;51.902;8.212;2022-11-23T07:51:08;99393.44;;;9.71
71630;BMP280;59479;51.902;8.212;2022-11-23T07:53:33;99401.81;;;9.68
71630;BMP280;59479;51.902;8.212;2022-11-23T07:56:00;99408.53;;;9.66
71630;BMP280;59479;51.902;8.212;2022-11-23T07:58:25;99403.63;;;9.62
71630;BMP280;59479;51.902;8.212;2022-11-23T08:00:51;99411.22;;;9.56
71630;BMP280;59479;51.902;8.212;2022-11-23T08:03:16;99411.94;;;9.64
71630;BMP280;59479;51.902;8.212;2022-11-23T08:05:41;99409.31;;;9.70
71630;BMP280;59479;51.902;8.212;2022-11-23T08:08:06;99415.31;;;9.60
71630;BMP280;59479;51.902;8.212;2022-11-23T08:10:32;99426.88;;;9.70
71630;BMP280;59479;51.902;8.212;2022-11-23T08:12:58;99416.03;;;9.68
71630;BMP280;59479;51.902;8.212;2022-11-23T08:15:24;99423.53;;;9.69
71630;BMP280;59479;51.902;8.212;2022-11-23T08:17:56;99431.94;;;9.67
71630;BMP280;59479;51.902;8.212;2022-11-23T08:20:21;99430.47;;;9.54
71630;BMP280;59479;51.902;8.212;2022-11-23T08:22:47;99426.22;;;9.61
71630;BMP280;59479;51.902;8.212;2022-11-23T08:25:12;99423.75;;;9.58
71630;BMP280;59479;51.902;8.212;2022-11-23T08:27:37;99430.34;;;9.63
71630;BMP280;59479;51.902;8.212;2022-11-23T08:30:03;99425.34;;;9.60
71630;BMP280;59479;51.902;8.212;2022-11-23T08:32:28;99425.25;;;9.67
71630;BMP280;59479;51.902;8.212;2022-11-23T08:34:54;99427.81;;;9.64
71630;BMP280;59479;51.902;8.212;2022-11-23T08:37:24;99441.78;;;9.80
71630;BMP280;59479;51.902;8.212;2022-11-23T08:39:50;99439.19;;;9.85
71630;BMP280;59479;51.902;8.212;2022-11-23T08:44:58;99446.66;;;9.88
71630;BMP280;59479;51.902;8.212;2022-11-23T08:47:34;99450.72;;;9.98
71630;BMP280;59479;51.902;8.212;2022-11-23T08:53:21;99439.88;;;9.96
71630;BMP280;59479;51.902;8.212;2022-11-23T08:56:19;99433.13;;;9.99
71630;BMP280;59479;51.902;8.212;2022-11-23T08:58:49;99436.59;;;9.94
71630;BMP280;59479;51.902;8.212;2022-11-23T09:01:19;99445.53;;;10.08
71630;BMP280;59479;51.902;8.212;2022-11-23T09:04:03;99437.03;;;10.15
71630;BMP280;59479;51.902;8.212;2022-11-23T09:06:39;99442.19;;;10.09
71630;BMP280;59479;51.902;8.212;2022-11-23T09:09:36;99449.59;;;10.13
71630;BMP280;59479;51.902;8.212;2022-11-23T09:12:08;99446.97;;;10.21
71630;BMP280;59479;51.902;8.212;2022-11-23T09:14:49;99447.81;;;10.21
71630;BMP280;59479;51.902;8.212;2022-11-23T09:20:06;99449.47;;;10.22
71630;BMP280;59479;51.902;8.212;2022-11-23T09:23:01;99450.47;;;10.12
71630;BMP280;59479;51.902;8.212;2022-11-23T09:25:29;99442.84;;;10.17
71630;BMP280;59479;51.902;8.212;2022-11-23T09:28:02;99441.28;;;10.11
71630;BMP280;59479;51.902;8.212;2022-11-23T09:30:49;99443.81;;;10.10
71630;BMP280;59479;51.902;8.212;2022-11-23T09:33:43;99449.59;;;10.13
71630;BMP280;59479;51.902;8.212;2022-11-23T09:36:11;99449.50;;;10.19
71630;BMP280;59479;51.902;8.212;2022-11-23T09:38:45;99451.19;;;10.20
71630;BMP280;59479;51.902;8.212;2022-11-23T09:41:41;99446.22;;;10.16
71630;BMP280;59479;51.902;8.212;2022-11-23T09:50:14;99462.22;;;10.10
71630;BMP280;59479;51.902;8.212;2022-11-23T09:52:47;99460.28;;;10.26
71630;BMP280;59479;51.902;8.212;2022-11-23T10:01:17;99440.84;;;10.35
71630;BMP280;59479;51.902;8.212;2022-11-23T10:03:46;99447.59;;;10.33
71630;BMP280;59479;51.902;8.212;2022-11-23T10:06:29;99440.66;;;10.47
71630;BMP280;59479;51.902;8.212;2022-11-23T10:15:39;99434.00;;;10.45
71630;BMP280;59479;51.902;8.212;2022-11-23T10:21:26;99438.00;;;10.53
71630;BMP280;59479;51.902;8.212;2022-11-23T10:24:27;99430.53;;;10.50
71630;BMP280;59479;51.902;8.212;2022-11-23T10:27:21;99428.84;;;10.52
71630;BMP280;59479;51.902;8.212;2022-11-23T10:29:52;99424.31;;;10.69
71630;BMP280;59479;51.902;8.212;2022-11-23T10:37:42;99441.06;;;10.68
71630;BMP280;59479;51.902;8.212;2022-11-23T10:41:35;99435.88;;;10.77
71630;BMP280;59479;51.902;8.212;2022-11-23T10:43:55;99428.22;;;10.82
71630;BMP280;59479;51.902;8.212;2022-11-23T10:46:45;99429.78;;;10.89
71630;BMP280;59479;51.902;8.212;2022-11-23T10:54:53;99424.72;;;10.90
71630;BMP280;59479;51.902;8.212;2022-11-23T11:02:54;99415.53;;;10.89
71630;BMP280;59479;51.902;8.212;2022-11-23T11:05:48;99422.91;;;10.96
71630;BMP280;59479;51.902;8.212;2022-11-23T11:08:34;99419.38;;;11.05
71630;BMP280;59479;51.902;8.212;2022-11-23T11:11:25;99419.22;;;11.12
71630;BMP280;59479;51.902;8.212;2022-11-23T11:14:26;99422.63;;;11.10
71630;BMP280;59479;51.902;8.212;2022-11-23T11:17:26;99420.88;;;11.13
71630;BMP280;59479;51.902;8.212;2022-11-23T11:23:26;99416.53;;;11.20
71630;BMP280;59479;51.902;8.212;2022-11-23T11:40:47;99417.97;;;11.31
71630;BMP280;59479;51.902;8.212;2022-11-23T11:47:00;99413.72;;;11.33
71630;BMP280;59479;51.902;8.212;2022-11-23T11:49:54;99416.41;;;11.26
71630;BMP280;59479;51.902;8.212;2022-11-23T11:52:34;99420.72;;;11.21
71630;BMP280;59479;51.902;8.212;2022-11-23T11:55:26;99410.34;;;11.34
71630;BMP280;59479;51.902;8.212;2022-11-23T11:58:10;99401.06;;;11.37
71630;BMP280;59479;51.902;8.212;2022-11-23T12:01:02;99401.38;;;11.24
71630;BMP280;59479;51.902;8.212;2022-11-23T12:07:04;99403.53;;;11.39
71630;BMP280;59479;51.902;8.212;2022-11-23T12:11:11;99400.16;;;11.40
71630;BMP280;59479;51.902;8.212;2022-11-23T12:17:20;99400.03;;;11.47
71630;BMP280;59479;51.902;8.212;2022-11-23T12:40:02;99361.03;;;11.29
71630;BMP280;59479;51.902;8.212;2022-11-23T13:00:03;99356.81;;;11.29
71630;BMP280;59479;51.902;8.212;2022-11-23T13:25:25;99371.81;;;11.33
71630;BMP280;59479;51.902;8.212;2022-11-23T13:35:59;99367.84;;;11.24
71630;BMP280;59479;51.902;8.212;2022-11-23T13:38:49;99376.22;;;11.24
71630;BMP280;59479;51.902;8.212;2022-11-23T14:07:14;99361.56;;;11.41
71630;BMP280;59479;51.902;8.212;2022-11-23T14:42:00;99326.59;;;11.32
71630;BMP280;59479;51.902;8.212;2022-11-23T14:44:27;99320.63;;;11.34
71630;BMP280;59479;51.902;8.212;2022-11-23T14:47:09;99324.97;;;11.28
71630;BMP280;59479;51.902;8.212;2022-11-23T14:49:35;99322.66;;;11.21
71630;BMP280;59479;51.902;8.212;2022-11-23T14:52:04;99328.50;;;11.21
71630;BMP280;59479;51.902;8.212;2022-11-23T14:54:30;99321.78;;;11.22
71630;BMP280;59479;51.902;8.212;2022-11-23T14:56:59;99328.50;;;11.21
71630;BMP280;59479;51.902;8.212;2022-11-23T14:59:35;99326.00;;;11.20
71630;BMP280;59479;51.902;8.212;2022-11-23T15:02:18;99328.56;;;11.18
71630;BMP280;59479;51.902;8.212;2022-11-23T15:04:58;99326.13;;;11.15
71630;BMP280;59479;51.902;8.212;2022-11-23T15:07:27;99334.66;;;11.08
71630;BMP280;59479;51.902;8.212;2022-11-23T15:13:16;99335.72;;;10.98
71630;BMP280;59479;51.902;8.212;2022-11-23T15:15:44;99329.31;;;10.86
71630;BMP280;59479;51.902;8.212;2022-11-23T15:18:11;99345.19;;;10.88
71630;BMP280;59479;51.902;8.212;2022-11-23T15:20:42;99347.81;;;10.82
71630;BMP280;59479;51.902;8.212;2022-11-23T15:23:27;99339.59;;;10.75
71630;BMP280;59479;51.902;8.212;2022-11-23T15:25:54;99339.56;;;10.77
71630;BMP280;59479;51.902;8.212;2022-11-23T15:28:31;99349.75;;;10.71
71630;BMP280;59479;51.902;8.212;2022-11-23T15:30:58;99358.16;;;10.68
71630;BMP280;59479;51.902;8.212;2022-11-23T15:33:24;99359.84;;;10.68
71630;BMP280;59479;51.902;8.212;2022-11-23T15:35:50;99357.50;;;10.60
71630;BMP280;59479;51.902;8.212;2022-11-23T15:38:20;99358.31;;;10.61
71630;BMP280;59479;51.902;8.212;2022-11-23T15:40:50;99354.16;;;10.60
71630;BMP280;59479;51.902;8.212;2022-11-23T15:43:19;99357.56;;;10.57
71630;BMP280;59479;51.902;8.212;2022-11-23T15:48:13;99369.47;;;10.48
71630;BMP280;59479;51.902;8.212;2022-11-23T15:53:28;99371.00;;;10.55
71630;BMP280;59479;51.902;8.212;2022-11-23T15:55:59;99372.22;;;10.36
71630;BMP280;59479;51.902;8.212;2022-11-23T15:58:26;99385.56;;;10.38
71630;BMP280;59479;51.902;8.212;2022-11-23T16:01:06;99374.75;;;10.35
71630;BMP280;59479;51.902;8.212;2022-11-23T16:03:51;99377.41;;;10.27
71630;BMP280;59479;51.902;8.212;2022-11-23T16:06:41;99382.47;;;10.24
71630;BMP280;59479;51.902;8.212;2022-11-23T16:12:26;99391.06;;;10.11
71630;BMP280;59479;51.902;8.212;2022-11-23T16:15:56;99396.09;;;10.11
71630;BMP280;59479;51.902;8.212;2022-11-23T16:18:00;99399.41;;;10.13
71630;BMP280;59479;51.902;8.212;2022-11-23T16:20:27;99401.97;;;10.12
71630;BMP280;59479;51.902;8.212;2022-11-23T16:22:54;99407.94;;;10.04
71630;BMP280;59479;51.902;8.212;2022-11-23T16:25:31;99419.59;;;10.07
71630;BMP280;59479;51.902;8.212;2022-11-23T16:28:15;99414.63;;;10.05
71630;BMP280;59479;51.902;8.212;2022-11-23T16:30:43;99423.72;;;10.11
71630;BMP280;59479;51.902;8.212;2022-11-23T16:33:18;99414.50;;;10.12
71630;BMP280;59479;51.902;8.212;2022-11-23T16:35:44;99425.38;;;10.12
71630;BMP280;59479;51.902;8.212;2022-11-23T16:38:10;99414.59;;;10.07
71630;BMP280;59479;51.902;8.212;2022-11-23T16:40:37;99418.84;;;10.03
71630;BMP280;59479;51.902;8.212;2022-11-23T16:43:02;99418.72;;;10.10
71630;BMP280;59479;51.902;8.212;2022-11-23T16:45:28;99428.03;;;10.04
71630;BMP280;59479;51.902;8.212;2022-11-23T16:47:55;99422.19;;;10.03
71630;BMP280;59479;51.902;8.212;2022-11-23T16:50:32;99433.00;;;10.06
71630;BMP280;59479;51.902;8.212;2022-11-23T16:53:19;99423.00;;;10.04
71630;BMP280;59479;51.902;8.212;2022-11-23T16:55:46;99426.34;;;10.04
71630;BMP280;59479;51.902;8.212;2022-11-23T16:58:15;99432.38;;;9.96
71630;BMP280;59479;51.902;8.212;2022-11-23T17:00:41;99426.44;;;9.98
71630;BMP280;59479;51.902;8.212;2022-11-23T17:03:16;99436.41;;;10.03
71630;BMP280;59479;51.902;8.212;2022-11-23T17:05:45;99434.72;;;10.03
71630;BMP280;59479;51.902;8.212;2022-11-23T17:08:13;99439.78;;;10.02
71630;BMP280;59479;51.902;8.212;2022-11-23T17:10:39;99443.94;;;10.03
71630;BMP280;59479;51.902;8.212;2022-11-23T17:13:06;99447.31;;;10.02
71630;BMP280;59479;51.902;8.212;2022-11-23T17:15:35;99439.88;;;9.96
71630;BMP280;59479;51.902;8.212;2022-11-23T17:18:02;99452.34;;;10.00
71630;BMP280;59479;51.902;8.212;2022-11-23T17:20:28;99452.25;;;10.06
71630;BMP280;59479;51.902;8.212;2022-11-23T17:22:53;99465.66;;;10.05
71630;BMP280;59479;51.902;8.212;2022-11-23T17:25:26;99466.44;;;10.08
71630;BMP280;59479;51.902;8.212;2022-11-23T17:27:58;99481.44;;;10.11
71630;BMP280;59479;51.902;8.212;2022-11-23T17:30:25;99488.97;;;10.11
71630;BMP280;59479;51.902;8.212;2022-11-23T17:32:56;99495.69;;;10.09
71630;BMP280;59479;51.902;8.212;2022-11-23T17:35:24;99492.28;;;10.13
71630;BMP280;59479;51.902;8.212;2022-11-23T17:37:57;99494.88;;;10.10
71630;BMP280;59479;51.902;8.212;2022-11-23T17:40:40;99506.50;;;10.14
71630;BMP280;59479;51.902;8.212;2022-11-23T17:43:15;99504.06;;;10.10
71630;BMP280;59479;51.902;8.212;2022-11-23T17:45:46;99506.53;;;10.13
71630;BMP280;59479;51.902;8.212;2022-11-23T17:48:26;99513.25;;;10.11
71630;BMP280;59479;51.902;8.212;2022-11-23T17:50:52;99514.22;;;10.03
71630;BMP280;59479;51.902;8.212;2022-11-23T17:53:25;99524.25;;;10.04
71630;BMP280;59479;51.902;8.212;2022-11-23T17:55:54;99520.00;;;10.07
71630;BMP280;59479;51.902;8.212;2022-11-23T17:58:22;99523.41;;;10.04
71630;BMP280;59479;51.902;8.212;2022-11-23T18:00:57;99530.09;;;10.05
71630;BMP280;59479;51.902;8.212;2022-11-23T18:04:01;99526.78;;;10.03
71630;BMP280;59479;51.902;8.212;2022-11-23T18:06:33;99525.16;;;9.99
71630;BMP280;59479;51.902;8.212;2022-11-23T18:09:23;99527.72;;;9.97
71630;BMP280;59479;51.902;8.212;2022-11-23T18:12:30;99533.44;;;10.04